createdAt,value
2023-04-25T00:00:31.492Z,99.90
2023-04-25T00:03:00.613Z,99.90
2023-04-25T00:05:30.565Z,99.90
2023-04-25T00:07:59.924Z,99.90
2023-04-25T00:10:28.080Z,99.90
2023-04-25T00:12:56.130Z,99.90
2023-04-25T00:15:25.285Z,99.90
2023-04-25T00:17:53.973Z,99.90
2023-04-25T00:20:22.851Z,99.90
2023-04-25T00:22:53.732Z,99.90
2023-04-25T00:25:22.058Z,99.90
2023-04-25T00:27:50.116Z,99.90
2023-04-25T00:30:18.209Z,99.90
2023-04-25T00:32:46.958Z,99.90
2023-04-25T00:35:15.172Z,99.90
2023-04-25T00:37:43.303Z,99.90
2023-04-25T00:40:13.494Z,99.90
2023-04-25T00:42:43.503Z,99.90
2023-04-25T00:45:15.764Z,99.90
2023-04-25T00:47:45.728Z,99.90
2023-04-25T00:50:14.541Z,99.90
2023-04-25T00:52:46.300Z,99.90
2023-04-25T00:55:16.797Z,99.90
2023-04-25T00:57:45.481Z,99.90
2023-04-25T01:00:15.461Z,99.90
2023-04-25T01:02:46.072Z,99.90
2023-04-25T01:05:14.481Z,99.90
2023-04-25T01:07:42.847Z,99.90
2023-04-25T01:10:11.516Z,99.90
2023-04-25T01:12:41.584Z,99.90
2023-04-25T01:15:10.355Z,99.90
2023-04-25T01:17:38.770Z,99.90
2023-04-25T01:20:10.462Z,99.90
2023-04-25T01:22:40.052Z,99.90
2023-04-25T01:25:11.026Z,99.90
2023-04-25T01:27:40.107Z,99.90
2023-04-25T01:30:10.218Z,99.90
2023-04-25T01:32:40.108Z,99.90
2023-04-25T01:35:11.130Z,99.90
2023-04-25T01:37:41.104Z,99.90
2023-04-25T01:40:11.968Z,99.90
2023-04-25T01:42:44.467Z,99.90
2023-04-25T01:45:13.742Z,99.90
2023-04-25T01:47:47.913Z,99.90
2023-04-25T01:50:16.621Z,99.90
2023-04-25T01:52:46.290Z,99.90
2023-04-25T01:55:14.378Z,99.90
2023-04-25T01:57:42.578Z,99.90
2023-04-25T02:00:12.545Z,99.90
2023-04-25T02:02:41.893Z,99.90
2023-04-25T02:05:10.949Z,99.90
2023-04-25T02:07:39.152Z,99.90
2023-04-25T02:10:10.077Z,99.90
2023-04-25T02:12:38.552Z,99.90
2023-04-25T02:15:08.652Z,99.90
2023-04-25T02:17:36.855Z,99.90
2023-04-25T02:20:06.354Z,99.90
2023-04-25T02:22:35.087Z,99.90
2023-04-25T02:25:05.596Z,99.90
2023-04-25T02:27:35.030Z,99.90
2023-04-25T02:30:03.520Z,99.90
2023-04-25T02:32:31.592Z,99.90
2023-04-25T02:35:04.689Z,99.90
2023-04-25T02:37:32.997Z,99.90
2023-04-25T02:40:01.403Z,99.90
2023-04-25T02:42:29.758Z,99.90
2023-04-25T02:44:59.260Z,99.90
2023-04-25T02:47:27.383Z,99.90
2023-04-25T02:49:55.631Z,99.90
2023-04-25T02:52:23.727Z,99.90
2023-04-25T02:54:51.811Z,99.90
2023-04-25T02:57:19.970Z,99.90
2023-04-25T02:59:48.175Z,99.90
2023-04-25T03:02:17.785Z,99.90
2023-04-25T03:04:45.962Z,99.90
2023-04-25T03:07:14.206Z,99.90
2023-04-25T03:09:42.319Z,99.90
2023-04-25T03:12:10.447Z,99.90
2023-04-25T03:14:38.560Z,99.90
2023-04-25T03:17:06.783Z,99.90
2023-04-25T03:19:36.348Z,99.90
2023-04-25T03:22:04.447Z,99.90
2023-04-25T03:24:32.500Z,99.90
2023-04-25T03:27:01.439Z,99.90
2023-04-25T03:29:29.762Z,99.90
2023-04-25T03:31:57.866Z,99.90
2023-04-25T03:34:26.965Z,99.90
2023-04-25T03:36:56.471Z,99.90
2023-04-25T03:39:24.590Z,99.90
2023-04-25T03:41:53.063Z,99.90
2023-04-25T03:44:21.122Z,99.90
2023-04-25T03:46:49.188Z,99.90
2023-04-25T03:49:19.216Z,99.90
2023-04-25T03:51:47.667Z,99.90
2023-04-25T03:54:17.176Z,99.90
2023-04-25T03:56:45.287Z,99.90
2023-04-25T03:59:16.683Z,99.90
2023-04-25T04:01:44.755Z,99.90
2023-04-25T04:04:12.998Z,99.90
2023-04-25T04:06:41.388Z,99.90
2023-04-25T04:09:11.920Z,99.90
2023-04-25T04:11:41.644Z,99.90
2023-04-25T04:14:10.947Z,99.90
2023-04-25T04:16:39.093Z,99.90
2023-04-25T04:19:07.489Z,99.90
2023-04-25T04:21:35.530Z,99.90
2023-04-25T04:24:04.334Z,99.90
2023-04-25T04:26:34.623Z,99.90
2023-04-25T04:29:04.072Z,99.90
2023-04-25T04:31:33.699Z,99.90
2023-04-25T04:34:02.666Z,99.90
2023-04-25T04:36:30.706Z,99.90
2023-04-25T04:38:58.900Z,99.90
2023-04-25T04:41:27.151Z,99.90
2023-04-25T04:43:56.995Z,99.90
2023-04-25T04:46:26.608Z,99.90
2023-04-25T04:48:54.663Z,99.90
2023-04-25T04:51:22.736Z,99.90
2023-04-25T04:53:51.092Z,99.90
2023-04-25T04:56:21.812Z,99.90
2023-04-25T04:58:50.583Z,99.90
2023-04-25T05:01:18.822Z,99.90
2023-04-25T05:03:48.644Z,99.90
2023-04-25T05:06:18.199Z,99.90
2023-04-25T05:08:46.191Z,99.90
2023-04-25T05:11:14.236Z,99.90
2023-04-25T05:13:42.296Z,99.90
2023-04-25T05:16:10.502Z,99.90
2023-04-25T05:18:38.550Z,99.90
2023-04-25T05:21:08.235Z,99.90
2023-04-25T05:23:36.369Z,99.90
2023-04-25T05:26:04.657Z,99.90
2023-04-25T05:28:32.830Z,99.90
2023-04-25T05:31:01.291Z,99.90
2023-04-25T05:33:29.375Z,99.90
2023-04-25T05:35:57.408Z,99.90
2023-04-25T05:38:26.930Z,99.90
2023-04-25T05:40:55.095Z,99.90
2023-04-25T05:43:23.337Z,99.90
2023-04-25T05:45:51.528Z,99.90
2023-04-25T05:48:19.600Z,99.90
2023-04-25T05:50:47.556Z,99.90
2023-04-25T05:53:15.606Z,99.90
2023-04-25T05:55:45.250Z,99.90
2023-04-25T05:58:13.357Z,99.90
2023-04-25T06:00:42.464Z,99.90
2023-04-25T06:03:11.583Z,99.90
2023-04-25T06:05:39.670Z,99.90
2023-04-25T06:08:07.720Z,99.90
2023-04-25T06:10:36.109Z,99.90
2023-04-25T06:13:06.598Z,99.90
2023-04-25T06:15:34.842Z,99.90
2023-04-25T06:18:03.281Z,99.90
2023-04-25T06:20:31.743Z,99.90
2023-04-25T06:22:59.816Z,99.90
2023-04-25T06:25:27.950Z,99.90
2023-04-25T06:27:56.099Z,99.90
2023-04-25T06:30:26.734Z,99.90
2023-04-25T06:32:55.044Z,99.90
2023-04-25T06:35:23.127Z,99.90
2023-04-25T06:37:51.159Z,99.90
2023-04-25T06:40:19.373Z,99.90
2023-04-25T06:42:47.485Z,99.90
2023-04-25T06:45:15.477Z,99.90
2023-04-25T06:47:44.989Z,99.90
2023-04-25T06:50:13.079Z,99.90
2023-04-25T06:52:41.149Z,99.90
2023-04-25T06:55:10.361Z,99.90
2023-04-25T06:57:38.334Z,99.90
2023-04-25T07:00:10.407Z,99.90
2023-04-25T07:02:38.552Z,99.90
2023-04-25T07:05:08.570Z,99.90
2023-04-25T07:07:36.706Z,99.90
2023-04-25T07:10:05.412Z,99.90
2023-04-25T07:12:33.439Z,99.90
2023-04-25T07:15:06.792Z,99.90
2023-04-25T07:17:35.686Z,99.90
2023-04-25T07:20:04.671Z,99.90
2023-04-25T07:22:34.308Z,99.90
2023-04-25T07:25:02.360Z,99.90
2023-04-25T07:27:30.470Z,99.90
2023-04-25T07:29:58.841Z,99.90
2023-04-25T07:32:28.675Z,99.90
2023-04-25T07:34:56.687Z,99.90
2023-04-25T07:37:24.870Z,99.90
2023-04-25T07:39:54.276Z,99.90
2023-04-25T07:42:22.315Z,99.90
2023-04-25T07:44:51.168Z,99.90
2023-04-25T07:47:20.382Z,99.90
2023-04-25T07:49:48.594Z,99.90
2023-04-25T07:52:16.808Z,99.90
2023-04-25T07:54:44.906Z,99.90
2023-04-25T07:57:15.008Z,99.90
2023-04-25T07:59:43.130Z,99.90
2023-04-25T08:02:11.222Z,99.90
2023-04-25T08:04:39.567Z,99.90
2023-04-25T08:07:07.823Z,99.90
2023-04-25T08:09:37.398Z,99.90
2023-04-25T08:12:06.314Z,99.90
2023-04-25T08:14:38.212Z,99.90
2023-04-25T08:17:06.616Z,99.90
2023-04-25T08:19:34.723Z,99.90
2023-04-25T08:22:03.040Z,99.90
2023-04-25T08:24:31.741Z,99.90
2023-04-25T08:27:00.016Z,99.90
2023-04-25T08:29:29.435Z,99.90
2023-04-25T08:31:59.015Z,99.90
2023-04-25T08:34:27.461Z,99.90
2023-04-25T08:36:55.593Z,99.90
2023-04-25T08:39:23.703Z,99.90
2023-04-25T08:41:53.651Z,99.90
2023-04-25T08:44:23.079Z,96.50
2023-04-25T08:46:51.945Z,93.10
2023-04-25T08:49:21.538Z,83.80
2023-04-25T08:51:52.565Z,77.80
2023-04-25T08:54:34.981Z,75.30
2023-04-25T08:57:05.571Z,61.60
2023-04-25T08:59:36.178Z,56.20
2023-04-25T09:02:05.358Z,50.50
2023-04-25T09:04:34.869Z,50.20
2023-04-25T09:07:02.873Z,45.80
2023-04-25T09:09:32.060Z,45.30
2023-04-25T09:12:00.535Z,42.20
2023-04-25T09:14:29.118Z,45.20
2023-04-25T09:17:04.474Z,43.80
2023-04-25T09:19:41.020Z,42.50
2023-04-25T09:22:10.053Z,42.80
2023-04-25T09:24:40.685Z,42.20
2023-04-25T09:27:11.382Z,40.00
2023-04-25T09:29:42.138Z,36.10
2023-04-25T09:32:28.126Z,35.70
2023-04-25T09:34:59.674Z,37.60
2023-04-25T09:37:30.551Z,38.70
2023-04-25T09:40:03.736Z,39.40
2023-04-25T09:42:32.419Z,39.50
2023-04-25T09:45:02.896Z,40.90
2023-04-25T09:47:31.010Z,42.00
2023-04-25T09:50:00.590Z,42.10
2023-04-25T09:52:28.799Z,42.80
2023-04-25T09:54:56.885Z,45.50
2023-04-25T09:57:27.309Z,47.70
2023-04-25T09:59:57.165Z,50.60
2023-04-25T10:02:29.146Z,48.10
2023-04-25T10:04:58.281Z,45.50
2023-04-25T10:07:32.288Z,46.50
2023-04-25T10:10:04.989Z,41.30
2023-04-25T10:12:35.358Z,39.90
2023-04-25T10:15:05.331Z,40.70
2023-04-25T10:17:34.970Z,41.10
2023-04-25T10:20:06.638Z,42.30
2023-04-25T10:22:40.206Z,38.60
2023-04-25T10:25:10.398Z,37.50
2023-04-25T10:27:38.987Z,35.50
2023-04-25T10:30:12.205Z,33.90
2023-04-25T10:32:40.742Z,31.50
2023-04-25T10:35:17.499Z,31.30
2023-04-25T10:38:08.233Z,27.40
2023-04-25T10:40:46.138Z,24.90
2023-04-25T10:43:38.338Z,22.10
2023-04-25T10:46:17.362Z,22.70
2023-04-25T10:48:53.466Z,23.00
2023-04-25T10:51:25.403Z,21.50
2023-04-25T10:54:03.702Z,22.40
2023-04-25T10:56:33.697Z,20.40
2023-04-25T10:59:08.641Z,20.80
2023-04-25T11:01:45.830Z,19.90
2023-04-25T11:04:25.265Z,20.40
2023-04-25T11:07:09.772Z,21.20
2023-04-25T11:09:42.439Z,21.70
2023-04-25T11:12:12.861Z,20.20
2023-04-25T11:17:14.513Z,20.20
2023-04-25T11:19:42.754Z,19.70
2023-04-25T11:22:12.815Z,19.80
2023-04-25T11:24:42.746Z,20.70
2023-04-25T11:27:11.107Z,20.50
2023-04-25T11:29:39.178Z,21.10
2023-04-25T11:32:07.728Z,22.60
2023-04-25T11:34:36.557Z,22.50
2023-04-25T11:37:05.449Z,20.90
2023-04-25T11:39:33.624Z,17.90
2023-04-25T11:42:08.089Z,16.00
2023-04-25T11:44:41.731Z,15.30
2023-04-25T11:47:09.850Z,15.40
2023-04-25T11:49:39.237Z,18.80
2023-04-25T11:52:09.344Z,18.80
2023-04-25T11:54:39.008Z,21.00
2023-04-25T11:57:08.930Z,22.60
2023-04-25T11:59:37.514Z,22.30
2023-04-25T12:02:08.045Z,23.50
2023-04-25T12:04:36.997Z,24.50
2023-04-25T12:07:06.056Z,24.90
2023-04-25T12:09:36.390Z,26.20
2023-04-25T12:12:05.251Z,25.20
2023-04-25T12:14:37.614Z,25.40
2023-04-25T12:17:09.305Z,25.50
2023-04-25T12:19:41.371Z,24.60
2023-04-25T12:22:23.481Z,23.60
2023-04-25T12:24:54.167Z,22.80
2023-04-25T12:27:22.381Z,21.30
2023-04-25T12:29:56.743Z,19.60
2023-04-25T12:32:25.214Z,21.50
2023-04-25T12:34:53.409Z,22.70
2023-04-25T12:37:21.946Z,22.20
2023-04-25T12:39:50.304Z,23.80
2023-04-25T12:42:18.476Z,23.70
2023-04-25T12:44:47.388Z,24.80
2023-04-25T12:47:17.155Z,23.00
2023-04-25T12:49:45.518Z,20.50
2023-04-25T12:52:13.657Z,20.10
2023-04-25T12:54:41.743Z,20.10
2023-04-25T12:57:09.957Z,19.20
2023-04-25T12:59:38.185Z,19.50
2023-04-25T13:02:06.333Z,20.40
2023-04-25T13:04:43.439Z,21.20
2023-04-25T13:07:14.349Z,21.50
2023-04-25T13:09:45.275Z,22.40
2023-04-25T13:12:13.540Z,22.50
2023-04-25T13:14:41.789Z,22.50
2023-04-25T13:17:10.258Z,21.40
2023-04-25T13:19:40.461Z,21.60
2023-04-25T13:22:08.727Z,21.90
2023-04-25T13:24:36.847Z,22.40
2023-04-25T13:27:05.186Z,21.60
2023-04-25T13:29:35.777Z,23.40
2023-04-25T13:32:03.961Z,23.10
2023-04-25T13:34:32.270Z,23.30
2023-04-25T13:37:02.451Z,21.80
2023-04-25T13:39:30.420Z,22.10
2023-04-25T13:41:58.476Z,21.70
2023-04-25T13:44:26.546Z,22.70
2023-04-25T13:46:54.776Z,22.60
2023-04-25T13:49:23.891Z,24.20
2023-04-25T13:51:51.944Z,23.30
2023-04-25T13:54:21.469Z,24.20
2023-04-25T13:56:49.887Z,22.70
2023-04-25T13:59:18.027Z,22.80
2023-04-25T14:01:46.312Z,23.40
2023-04-25T14:04:14.410Z,21.60
2023-04-25T14:06:42.558Z,21.70
2023-04-25T14:09:11.385Z,20.30
2023-04-25T14:11:43.065Z,20.90
2023-04-25T14:14:11.209Z,22.10
2023-04-25T14:16:40.012Z,21.80
2023-04-25T14:19:08.065Z,20.60
2023-04-25T14:21:36.156Z,21.40
2023-04-25T14:24:05.879Z,21.10
2023-04-25T14:26:35.592Z,22.50
2023-04-25T14:29:06.034Z,20.50
2023-04-25T14:31:34.329Z,20.80
2023-04-25T14:34:02.575Z,21.40
2023-04-25T14:36:31.849Z,20.10
2023-04-25T14:39:00.123Z,20.50
2023-04-25T14:41:28.528Z,18.90
2023-04-25T14:43:57.839Z,20.10
2023-04-25T14:46:30.113Z,18.50
2023-04-25T14:48:58.465Z,17.40
2023-04-25T14:51:29.727Z,18.30
2023-04-25T14:53:57.976Z,17.90
2023-04-25T14:56:29.327Z,16.90
2023-04-25T14:58:57.621Z,18.20
2023-04-25T15:01:25.896Z,18.50
2023-04-25T15:03:55.829Z,19.70
2023-04-25T15:06:27.376Z,19.30
2023-04-25T15:08:55.723Z,20.10
2023-04-25T15:11:24.167Z,19.30
2023-04-25T15:13:52.964Z,20.00
2023-04-25T15:16:21.573Z,20.80
2023-04-25T15:19:05.334Z,20.20
2023-04-25T15:21:38.198Z,21.90
2023-04-25T15:24:10.271Z,21.50
2023-04-25T15:26:38.340Z,20.70
2023-04-25T15:29:07.672Z,20.40
2023-04-25T15:31:35.868Z,21.00
2023-04-25T15:34:09.448Z,21.10
2023-04-25T15:36:37.714Z,21.10
2023-04-25T15:39:05.960Z,21.90
2023-04-25T15:41:37.785Z,21.00
2023-04-25T15:44:07.904Z,20.20
2023-04-25T15:46:36.082Z,19.90
2023-04-25T15:49:05.682Z,20.50
2023-04-25T15:51:34.765Z,20.00
2023-04-25T15:54:04.120Z,20.70
2023-04-25T15:56:32.350Z,20.00
2023-04-25T15:59:00.379Z,21.50
2023-04-25T16:01:31.047Z,21.30
2023-04-25T16:03:59.629Z,21.40
2023-04-25T16:06:30.278Z,21.50
2023-04-25T16:08:58.594Z,21.90
2023-04-25T16:11:26.738Z,22.20
2023-04-25T16:13:55.073Z,22.10
2023-04-25T16:16:23.267Z,23.50
2023-04-25T16:18:51.458Z,23.30
2023-04-25T16:21:19.526Z,21.80
2023-04-25T16:23:49.294Z,22.40
2023-04-25T16:26:17.564Z,23.20
2023-04-25T16:28:45.718Z,23.40
2023-04-25T16:31:14.205Z,22.90
2023-04-25T16:33:42.449Z,23.10
2023-04-25T16:36:13.051Z,22.50
2023-04-25T16:38:41.353Z,22.50
2023-04-25T16:41:11.706Z,22.50
2023-04-25T16:43:40.696Z,22.00
2023-04-25T16:46:09.474Z,22.50
2023-04-25T16:48:37.674Z,22.70
2023-04-25T16:51:06.341Z,23.60
2023-04-25T16:53:34.555Z,23.30
2023-04-25T16:56:03.142Z,21.50
2023-04-25T16:58:32.734Z,22.10
2023-04-25T17:01:01.445Z,22.20
2023-04-25T17:03:30.868Z,22.70
2023-04-25T17:06:01.732Z,22.40
2023-04-25T17:08:29.815Z,23.40
2023-04-25T17:10:58.081Z,23.80
2023-04-25T17:13:31.064Z,23.20
2023-04-25T17:16:01.469Z,23.90
2023-04-25T17:18:29.651Z,24.70
2023-04-25T17:20:57.871Z,24.50
2023-04-25T17:23:26.055Z,24.20
2023-04-25T17:25:54.466Z,25.20
2023-04-25T17:28:22.671Z,25.40
2023-04-25T17:30:50.766Z,25.30
2023-04-25T17:33:20.160Z,25.70
2023-04-25T17:35:48.302Z,26.10
2023-04-25T17:38:16.328Z,27.40
2023-04-25T17:40:44.365Z,26.70
2023-04-25T17:43:12.423Z,26.50
2023-04-25T17:45:40.482Z,26.50
2023-04-25T17:48:08.676Z,27.50
2023-04-25T17:50:38.061Z,27.30
2023-04-25T17:53:06.317Z,27.70
2023-04-25T17:55:34.325Z,28.10
2023-04-25T17:58:02.492Z,29.20
2023-04-25T18:00:31.656Z,29.70
2023-04-25T18:02:59.874Z,30.20
2023-04-25T18:05:29.226Z,31.30
2023-04-25T18:08:00.696Z,31.40
2023-04-25T18:10:28.963Z,30.80
2023-04-25T18:12:57.003Z,31.30
2023-04-25T18:15:25.062Z,31.70
2023-04-25T18:17:53.285Z,32.10
2023-04-25T18:20:22.219Z,34.50
2023-04-25T18:22:50.739Z,35.40
2023-04-25T18:25:20.193Z,34.50
2023-04-25T18:27:48.258Z,35.80
2023-04-25T18:30:16.295Z,39.80
2023-04-25T18:32:44.568Z,44.10
2023-04-25T18:35:13.898Z,47.50
2023-04-25T18:37:42.600Z,52.70
2023-04-25T18:40:14.290Z,58.80
2023-04-25T18:42:43.954Z,70.90
2023-04-25T18:45:12.943Z,88.00
2023-04-25T18:47:41.068Z,93.70
2023-04-25T18:50:10.219Z,99.90
2023-04-25T18:52:38.687Z,99.90
2023-04-25T18:55:08.366Z,99.90
2023-04-25T18:57:36.547Z,99.90
2023-04-25T19:00:08.836Z,99.90
2023-04-25T19:02:38.020Z,99.90
2023-04-25T19:05:07.373Z,99.90
2023-04-25T19:07:35.405Z,99.90
2023-04-25T19:10:05.148Z,99.90
2023-04-25T19:12:34.555Z,99.90
2023-04-25T19:15:02.767Z,99.90
2023-04-25T19:17:32.256Z,99.90
2023-04-25T19:20:01.281Z,99.90
2023-04-25T19:22:29.752Z,99.90
2023-04-25T19:25:09.012Z,99.90
2023-04-25T19:27:37.791Z,99.90
2023-04-25T19:30:08.800Z,99.90
2023-04-25T19:32:39.487Z,99.90
2023-04-25T19:35:11.767Z,99.90
2023-04-25T19:37:45.725Z,99.90
2023-04-25T19:40:16.045Z,99.90
2023-04-25T19:42:44.185Z,99.90
2023-04-25T19:45:13.684Z,99.90
2023-04-25T19:47:43.799Z,99.90
2023-04-25T19:50:12.520Z,99.90
2023-04-25T19:52:41.364Z,99.90
2023-04-25T19:55:11.313Z,99.90
2023-04-25T19:57:39.766Z,99.90
2023-04-25T20:00:11.951Z,99.90
2023-04-25T20:02:40.700Z,99.90
2023-04-25T20:05:10.675Z,99.90
2023-04-25T20:07:38.895Z,99.90
2023-04-25T20:10:09.057Z,99.90
2023-04-25T20:12:40.090Z,99.90
2023-04-25T20:15:09.677Z,99.90
2023-04-25T20:17:37.890Z,99.90
2023-04-25T20:20:07.315Z,99.90
2023-04-25T20:22:38.648Z,99.90
2023-04-25T20:25:09.161Z,99.90
2023-04-25T20:27:37.941Z,99.90
2023-04-25T20:30:08.290Z,99.90
2023-04-25T20:32:37.192Z,99.90
2023-04-25T20:35:08.727Z,99.90
2023-04-25T20:37:38.172Z,99.90
2023-04-25T20:40:09.649Z,99.90
2023-04-25T20:42:38.149Z,99.90
2023-04-25T20:45:12.610Z,99.90
2023-04-25T20:47:40.869Z,99.90
2023-04-25T20:50:10.977Z,99.90
2023-04-25T20:52:40.367Z,99.90
2023-04-25T20:55:10.891Z,99.90
2023-04-25T20:57:39.121Z,99.90
2023-04-25T21:00:17.340Z,99.90
2023-04-25T21:02:47.117Z,99.90
2023-04-25T21:05:15.453Z,99.90
2023-04-25T21:07:45.586Z,99.90
2023-04-25T21:10:15.560Z,99.90
2023-04-25T21:12:47.622Z,99.90
2023-04-25T21:15:17.726Z,99.90
2023-04-25T21:17:47.338Z,99.90
2023-04-25T21:20:17.791Z,99.90
2023-04-25T21:22:53.483Z,99.90
2023-04-25T21:25:29.150Z,99.90
2023-04-25T21:27:58.782Z,99.90
2023-04-25T21:30:27.907Z,99.90
2023-04-25T21:32:56.480Z,99.90
2023-04-25T21:35:24.811Z,99.90
2023-04-25T21:37:54.584Z,99.90
2023-04-25T21:40:22.949Z,99.90
2023-04-25T21:42:53.322Z,99.90
2023-04-25T21:45:22.576Z,99.90
2023-04-25T21:47:51.098Z,99.90
2023-04-25T21:50:19.517Z,99.90
2023-04-25T21:52:48.174Z,99.90
2023-04-25T21:55:19.672Z,99.90
2023-04-25T21:57:47.739Z,99.90
2023-04-25T22:00:24.774Z,99.90
2023-04-25T22:02:53.910Z,99.90
2023-04-25T22:05:22.858Z,99.90
2023-04-25T22:07:53.039Z,99.90
2023-04-25T22:10:23.108Z,99.90
2023-04-25T22:12:51.686Z,99.90
2023-04-25T22:15:23.475Z,99.90
2023-04-25T22:17:55.232Z,99.90
2023-04-25T22:20:26.389Z,99.90
2023-04-25T22:22:55.605Z,99.90
2023-04-25T22:25:25.420Z,99.90
2023-04-25T22:27:53.632Z,99.90
2023-04-25T22:30:22.737Z,99.90
2023-04-25T22:32:50.893Z,99.90
2023-04-25T22:35:19.257Z,99.90
2023-04-25T22:37:47.285Z,99.90
2023-04-25T22:40:15.577Z,99.90
2023-04-25T22:42:45.187Z,99.90
2023-04-25T22:45:13.615Z,99.90
2023-04-25T22:47:41.921Z,99.90
2023-04-25T22:50:14.610Z,99.90
2023-04-25T22:52:42.984Z,99.90
2023-04-25T22:55:12.519Z,99.90
2023-04-25T22:57:41.441Z,99.90
2023-04-25T23:00:19.513Z,99.90
2023-04-25T23:02:47.774Z,99.90
2023-04-25T23:05:16.575Z,99.90
2023-04-25T23:07:45.622Z,99.90
2023-04-25T23:10:14.231Z,99.90
2023-04-25T23:12:42.769Z,99.90
2023-04-25T23:15:13.559Z,99.90
2023-04-25T23:17:42.700Z,99.90
2023-04-25T23:20:12.165Z,99.90
2023-04-25T23:22:40.553Z,99.90
2023-04-25T23:25:11.610Z,99.90
2023-04-25T23:27:39.615Z,99.90
2023-04-25T23:30:10.071Z,99.90
2023-04-25T23:32:39.787Z,99.90
2023-04-25T23:35:10.055Z,99.90
2023-04-25T23:37:40.352Z,99.90
2023-04-25T23:40:12.475Z,99.90
2023-04-25T23:42:42.649Z,99.90
2023-04-25T23:45:11.365Z,99.90
2023-04-25T23:47:40.910Z,99.90
2023-04-25T23:50:10.226Z,99.90
2023-04-25T23:52:38.331Z,99.90
2023-04-25T23:55:07.704Z,99.90
2023-04-25T23:57:36.244Z,99.90
